createdAt,value
2018-09-23T00:00:01.829Z,1012.00
2018-09-23T00:01:01.765Z,1012.00
2018-09-23T00:02:54.548Z,1011.93
2018-09-23T00:03:54.463Z,1011.94
2018-09-23T00:05:47.222Z,1011.93
2018-09-23T00:06:47.153Z,1011.88
2018-09-23T00:08:39.947Z,1011.93
2018-09-23T00:09:39.864Z,1011.90
2018-09-23T00:11:32.639Z,1011.92
2018-09-23T00:12:32.569Z,1011.93
2018-09-23T00:14:25.366Z,1011.93
2018-09-23T00:15:25.272Z,1011.97
2018-09-23T00:17:18.060Z,1011.89
2018-09-23T00:18:17.981Z,1011.93
2018-09-23T00:20:10.751Z,1011.92
2018-09-23T00:21:10.682Z,1011.90
2018-09-23T00:23:03.490Z,1011.92
2018-09-23T00:24:03.416Z,1011.90
2018-09-23T00:25:56.189Z,1011.89
2018-09-23T00:26:56.116Z,1011.83
2018-09-23T00:28:48.896Z,1011.81
2018-09-23T00:29:48.802Z,1011.82
2018-09-23T00:31:41.575Z,1011.79
2018-09-23T00:32:41.496Z,1011.78
2018-09-23T00:34:34.290Z,1011.73
2018-09-23T00:35:34.205Z,1011.75
2018-09-23T00:37:27.038Z,1011.75
2018-09-23T00:38:26.933Z,1011.77
2018-09-23T00:40:19.755Z,1011.72
2018-09-23T00:41:19.713Z,1011.72
2018-09-23T00:43:12.462Z,1011.69
2018-09-23T00:44:12.387Z,1011.75
2018-09-23T00:46:05.154Z,1011.75
2018-09-23T00:47:05.082Z,1011.77
2018-09-23T00:48:57.867Z,1011.82
2018-09-23T00:49:57.792Z,1011.81
2018-09-23T00:51:50.563Z,1011.81
2018-09-23T00:52:50.501Z,1011.79
2018-09-23T00:54:43.295Z,1011.79
2018-09-23T00:55:43.211Z,1011.74
2018-09-23T00:57:35.973Z,1011.75
2018-09-23T00:58:35.915Z,1011.67
2018-09-23T01:00:28.739Z,1011.70
2018-09-23T01:01:28.658Z,1011.65
2018-09-23T01:03:21.442Z,1011.56
2018-09-23T01:04:21.371Z,1011.59
2018-09-23T01:06:14.159Z,1011.57
2018-09-23T01:07:14.086Z,1011.61
2018-09-23T01:09:06.888Z,1011.56
2018-09-23T01:10:06.807Z,1011.54
2018-09-23T01:11:59.592Z,1011.59
2018-09-23T01:12:59.517Z,1011.59
2018-09-23T01:14:52.344Z,1011.59
2018-09-23T01:15:52.234Z,1011.54
2018-09-23T01:17:44.989Z,1011.51
2018-09-23T01:18:44.919Z,1011.47
2018-09-23T01:20:37.726Z,1011.43
2018-09-23T01:21:37.628Z,1011.42
2018-09-23T01:23:30.445Z,1011.44
2018-09-23T01:24:30.386Z,1011.41
2018-09-23T01:26:23.155Z,1011.41
2018-09-23T01:27:23.090Z,1011.45
2018-09-23T01:29:15.872Z,1011.45
2018-09-23T01:30:15.789Z,1011.50
2018-09-23T01:32:08.560Z,1011.53
2018-09-23T01:33:08.485Z,1011.55
2018-09-23T01:35:01.266Z,1011.46
2018-09-23T01:36:01.190Z,1011.52
2018-09-23T01:37:53.967Z,1011.42
2018-09-23T01:38:53.897Z,1011.40
2018-09-23T01:40:46.669Z,1011.36
2018-09-23T01:41:46.594Z,1011.42
2018-09-23T01:43:39.387Z,1011.40
2018-09-23T01:44:39.309Z,1011.41
2018-09-23T01:46:32.063Z,1011.34
2018-09-23T01:47:32.001Z,1011.36
2018-09-23T01:49:24.784Z,1011.29
2018-09-23T01:50:24.709Z,1011.32
2018-09-23T01:52:17.474Z,1011.38
2018-09-23T01:53:17.408Z,1011.41
2018-09-23T01:55:10.190Z,1011.41
2018-09-23T01:56:10.105Z,1011.40
2018-09-23T01:58:02.870Z,1011.39
2018-09-23T01:59:02.812Z,1011.38
2018-09-23T02:00:55.613Z,1011.40
2018-09-23T02:01:55.520Z,1011.43
2018-09-23T02:03:48.285Z,1011.41
2018-09-23T02:04:48.203Z,1011.42
2018-09-23T02:06:40.960Z,1011.39
2018-09-23T02:07:40.899Z,1011.41
2018-09-23T02:09:33.691Z,1011.34
2018-09-23T02:10:33.624Z,1011.32
2018-09-23T02:12:26.377Z,1011.24
2018-09-23T02:13:26.319Z,1011.25
2018-09-23T02:15:19.103Z,1011.28
2018-09-23T02:16:19.022Z,1011.22
2018-09-23T02:18:11.792Z,1011.21
2018-09-23T02:19:11.729Z,1011.25
2018-09-23T02:21:04.525Z,1011.19
2018-09-23T02:22:04.430Z,1011.16
2018-09-23T02:23:57.210Z,1011.13
2018-09-23T02:24:57.129Z,1011.12
2018-09-23T02:26:50.001Z,1011.10
2018-09-23T02:27:49.990Z,1011.14
2018-09-23T02:29:43.033Z,1011.11
2018-09-23T02:30:42.792Z,1011.10
2018-09-23T02:32:35.792Z,1011.08
2018-09-23T02:33:35.689Z,1011.12
2018-09-23T02:35:28.656Z,1011.06
2018-09-23T02:36:28.455Z,1011.04
2018-09-23T02:38:21.313Z,1011.05
2018-09-23T02:39:21.209Z,1011.03
2018-09-23T02:41:14.253Z,1011.03
2018-09-23T02:42:14.097Z,1011.07
2018-09-23T02:44:07.169Z,1011.09
2018-09-23T02:45:06.923Z,1011.04
2018-09-23T02:46:59.821Z,1011.03
2018-09-23T02:47:59.661Z,1011.04
2018-09-23T02:49:52.605Z,1010.99
2018-09-23T02:50:52.509Z,1010.93
2018-09-23T02:52:45.527Z,1010.92
2018-09-23T02:53:45.418Z,1010.95
2018-09-23T02:55:38.318Z,1011.00
2018-09-23T02:56:38.223Z,1010.98
2018-09-23T02:58:30.972Z,1011.00
2018-09-23T02:59:30.909Z,1010.97
2018-09-23T03:01:23.887Z,1010.94
2018-09-23T03:02:23.718Z,1010.86
2018-09-23T03:04:16.629Z,1010.86
2018-09-23T03:05:16.607Z,1010.83
2018-09-23T03:07:09.389Z,1010.89
2018-09-23T03:08:09.379Z,1010.90
2018-09-23T03:10:02.344Z,1010.88
2018-09-23T03:11:02.141Z,1010.87
2018-09-23T03:12:54.954Z,1010.88
2018-09-23T03:13:54.915Z,1010.85
2018-09-23T03:15:47.913Z,1010.80
2018-09-23T03:16:47.682Z,1010.75
2018-09-23T03:18:40.663Z,1010.76
2018-09-23T03:19:40.451Z,1010.77
2018-09-23T03:21:33.369Z,1010.81
2018-09-23T03:22:33.299Z,1010.83
2018-09-23T03:24:26.200Z,1010.82
2018-09-23T03:25:26.139Z,1010.81
2018-09-23T03:27:18.819Z,1010.85
2018-09-23T03:28:18.752Z,1010.89
2018-09-23T03:30:11.539Z,1010.88
2018-09-23T03:31:11.468Z,1010.89
2018-09-23T03:33:04.229Z,1010.92
2018-09-23T03:34:04.153Z,1010.89
2018-09-23T03:35:56.954Z,1010.99
2018-09-23T03:36:56.875Z,1010.92
2018-09-23T03:38:49.665Z,1010.87
2018-09-23T03:39:49.582Z,1010.81
2018-09-23T03:41:42.379Z,1010.80
2018-09-23T03:42:42.285Z,1010.79
2018-09-23T03:44:35.063Z,1010.79
2018-09-23T03:45:34.981Z,1010.75
2018-09-23T03:47:27.772Z,1010.75
2018-09-23T03:48:27.699Z,1010.76
2018-09-23T03:50:20.497Z,1010.74
2018-09-23T03:51:20.417Z,1010.75
2018-09-23T03:53:13.180Z,1010.75
2018-09-23T03:54:13.123Z,1010.75
2018-09-23T03:56:05.895Z,1010.84
2018-09-23T03:57:05.814Z,1010.82
2018-09-23T03:58:58.633Z,1010.78
2018-09-23T03:59:58.552Z,1010.73
2018-09-23T04:01:51.326Z,1010.67
2018-09-23T04:02:51.242Z,1010.64
2018-09-23T04:04:44.064Z,1010.61
2018-09-23T04:05:43.982Z,1010.66
2018-09-23T04:07:36.762Z,1010.71
2018-09-23T04:08:36.687Z,1010.70
2018-09-23T04:10:29.467Z,1010.68
2018-09-23T04:11:29.380Z,1010.67
2018-09-23T04:13:22.162Z,1010.66
2018-09-23T04:14:22.096Z,1010.64
2018-09-23T04:16:14.873Z,1010.67
2018-09-23T04:17:14.803Z,1010.65
2018-09-23T04:19:07.570Z,1010.66
2018-09-23T04:20:07.514Z,1010.68
2018-09-23T04:22:00.286Z,1010.59
2018-09-23T04:23:00.206Z,1010.64
2018-09-23T04:24:52.987Z,1010.62
2018-09-23T04:25:52.915Z,1010.62
2018-09-23T04:27:45.687Z,1010.57
2018-09-23T04:28:45.606Z,1010.57
2018-09-23T04:30:38.390Z,1010.60
2018-09-23T04:31:38.363Z,1010.60
2018-09-23T04:33:31.080Z,1010.61
2018-09-23T04:34:31.013Z,1010.62
2018-09-23T04:36:23.786Z,1010.65
2018-09-23T04:37:23.713Z,1010.66
2018-09-23T04:39:16.475Z,1010.71
2018-09-23T04:40:16.409Z,1010.65
2018-09-23T04:42:09.278Z,1010.57
2018-09-23T04:43:09.128Z,1010.58
2018-09-23T04:45:02.036Z,1010.54
2018-09-23T04:46:01.843Z,1010.53
2018-09-23T04:47:54.621Z,1010.55
2018-09-23T04:48:54.542Z,1010.59
2018-09-23T04:50:47.359Z,1010.56
2018-09-23T04:51:47.271Z,1010.57
2018-09-23T04:53:40.053Z,1010.59
2018-09-23T04:54:39.963Z,1010.60
2018-09-23T04:56:32.741Z,1010.51
2018-09-23T04:57:32.678Z,1010.52
2018-09-23T04:59:25.442Z,1010.49
2018-09-23T05:00:25.356Z,1010.50
2018-09-23T05:02:18.164Z,1010.48
2018-09-23T05:03:18.073Z,1010.49
2018-09-23T05:05:10.875Z,1010.50
2018-09-23T05:06:10.774Z,1010.48
2018-09-23T05:08:03.604Z,1010.48
2018-09-23T05:09:03.485Z,1010.44
2018-09-23T05:10:56.252Z,1010.41
2018-09-23T05:11:56.176Z,1010.43
2018-09-23T05:13:48.967Z,1010.42
2018-09-23T05:14:48.907Z,1010.38
2018-09-23T05:16:41.707Z,1010.36
2018-09-23T05:17:41.607Z,1010.38
2018-09-23T05:19:34.392Z,1010.34
2018-09-23T05:20:34.308Z,1010.32
2018-09-23T05:22:27.112Z,1010.27
2018-09-23T05:23:27.040Z,1010.31
2018-09-23T05:25:19.819Z,1010.25
2018-09-23T05:26:19.750Z,1010.23
2018-09-23T05:28:12.528Z,1010.23
2018-09-23T05:29:12.442Z,1010.22
2018-09-23T05:31:05.296Z,1010.16
2018-09-23T05:32:05.137Z,1010.18
2018-09-23T05:33:57.982Z,1010.16
2018-09-23T05:34:57.918Z,1010.16
2018-09-23T05:36:50.720Z,1010.22
2018-09-23T05:37:50.617Z,1010.26
2018-09-23T05:39:43.448Z,1010.37
2018-09-23T05:40:43.364Z,1010.35
2018-09-23T05:42:36.150Z,1010.28
2018-09-23T05:43:36.080Z,1010.25
2018-09-23T05:45:28.914Z,1010.14
2018-09-23T05:46:28.837Z,1010.10
2018-09-23T05:48:21.620Z,1010.10
2018-09-23T05:49:21.544Z,1010.12
2018-09-23T05:51:14.324Z,1010.10
2018-09-23T05:52:14.231Z,1010.04
2018-09-23T05:54:07.032Z,1010.06
2018-09-23T05:55:06.975Z,1010.03
2018-09-23T05:56:59.823Z,1010.09
2018-09-23T05:57:59.751Z,1010.12
2018-09-23T05:59:52.617Z,1010.12
2018-09-23T06:00:52.425Z,1010.11
2018-09-23T06:02:45.295Z,1010.10
2018-09-23T06:03:45.150Z,1010.11
2018-09-23T06:05:37.947Z,1010.02
2018-09-23T06:06:37.882Z,1010.03
2018-09-23T06:08:30.808Z,1010.04
2018-09-23T06:09:30.616Z,1010.05
2018-09-23T06:11:23.426Z,1010.15
2018-09-23T06:12:23.344Z,1010.07
2018-09-23T06:14:16.132Z,1010.06
2018-09-23T06:15:16.070Z,1010.06
2018-09-23T06:17:08.848Z,1010.05
2018-09-23T06:18:08.769Z,1009.98
2018-09-23T06:20:01.594Z,1010.01
2018-09-23T06:21:01.517Z,1010.01
2018-09-23T06:22:54.307Z,1010.07
2018-09-23T06:23:54.224Z,1010.11
2018-09-23T06:25:47.264Z,1010.16
2018-09-23T06:26:47.201Z,1010.12
2018-09-23T06:28:39.991Z,1010.05
2018-09-23T06:29:39.921Z,1010.02
2018-09-23T06:31:32.782Z,1009.98
2018-09-23T06:32:32.638Z,1009.99
2018-09-23T06:34:25.390Z,1009.95
2018-09-23T06:35:25.337Z,1009.98
2018-09-23T06:37:18.129Z,1010.02
2018-09-23T06:38:18.031Z,1010.03
2018-09-23T06:40:10.818Z,1010.15
2018-09-23T06:41:10.758Z,1010.19
2018-09-23T06:43:03.680Z,1010.26
2018-09-23T06:44:03.472Z,1010.30
2018-09-23T06:45:56.293Z,1010.34
2018-09-23T06:46:56.223Z,1010.36
2018-09-23T06:48:49.079Z,1010.31
2018-09-23T06:49:48.927Z,1010.25
2018-09-23T06:51:41.709Z,1010.23
2018-09-23T06:52:41.638Z,1010.18
2018-09-23T06:54:34.431Z,1010.16
2018-09-23T06:55:34.394Z,1010.16
2018-09-23T06:57:27.167Z,1010.13
2018-09-23T06:58:27.082Z,1010.16
2018-09-23T07:00:19.865Z,1010.21
2018-09-23T07:01:19.807Z,1010.26
2018-09-23T07:03:12.625Z,1010.32
2018-09-23T07:04:12.547Z,1010.32
2018-09-23T07:06:05.331Z,1010.39
2018-09-23T07:07:05.260Z,1010.38
2018-09-23T07:08:58.056Z,1010.31
2018-09-23T07:09:57.950Z,1010.31
2018-09-23T07:11:50.763Z,1010.30
2018-09-23T07:12:50.683Z,1010.31
2018-09-23T07:14:43.477Z,1010.27
2018-09-23T07:15:43.423Z,1010.20
2018-09-23T07:17:36.219Z,1010.21
2018-09-23T07:18:36.133Z,1010.19
2018-09-23T07:20:28.975Z,1010.20
2018-09-23T07:21:28.891Z,1010.24
2018-09-23T07:23:21.670Z,1010.28
2018-09-23T07:24:21.672Z,1010.25
2018-09-23T07:26:14.403Z,1010.28
2018-09-23T07:27:14.309Z,1010.26
2018-09-23T07:29:07.127Z,1010.33
2018-09-23T07:30:07.208Z,1010.37
2018-09-23T07:31:59.837Z,1010.29
2018-09-23T07:32:59.749Z,1010.27
2018-09-23T07:34:52.546Z,1010.18
2018-09-23T07:35:52.472Z,1010.13
2018-09-23T07:37:45.258Z,1010.15
2018-09-23T07:38:45.177Z,1010.24
2018-09-23T07:40:38.000Z,1010.33
2018-09-23T07:41:37.947Z,1010.36
2018-09-23T07:43:30.777Z,1010.33
2018-09-23T07:44:30.675Z,1010.35
2018-09-23T07:46:23.506Z,1010.39
2018-09-23T07:47:23.451Z,1010.40
2018-09-23T07:49:16.358Z,1010.43
2018-09-23T07:50:16.242Z,1010.44
2018-09-23T07:52:09.173Z,1010.41
2018-09-23T07:53:09.048Z,1010.44
2018-09-23T07:55:01.983Z,1010.45
2018-09-23T07:56:01.904Z,1010.41
2018-09-23T07:57:54.756Z,1010.33
2018-09-23T07:58:54.648Z,1010.24
2018-09-23T08:00:47.529Z,1010.22
2018-09-23T08:01:47.456Z,1010.25
2018-09-23T08:03:40.257Z,1010.26
2018-09-23T08:04:40.169Z,1010.30
2018-09-23T08:06:32.945Z,1010.22
2018-09-23T08:07:32.879Z,1010.21
2018-09-23T08:09:25.677Z,1010.17
2018-09-23T08:10:25.598Z,1010.14
2018-09-23T08:12:18.462Z,1010.18
2018-09-23T08:13:18.394Z,1010.18
2018-09-23T08:15:11.122Z,1010.12
2018-09-23T08:16:11.082Z,1010.11
2018-09-23T08:18:03.871Z,1010.02
2018-09-23T08:19:03.769Z,1009.97
2018-09-23T08:20:56.621Z,1009.97
2018-09-23T08:21:56.469Z,1009.92
2018-09-23T08:23:49.338Z,1009.89
2018-09-23T08:24:49.241Z,1009.95
2018-09-23T08:26:42.022Z,1009.96
2018-09-23T08:27:41.969Z,1009.99
2018-09-23T08:29:34.754Z,1009.99
2018-09-23T08:30:34.685Z,1009.99
2018-09-23T08:32:27.511Z,1009.85
2018-09-23T08:33:27.388Z,1009.83
2018-09-23T08:35:20.189Z,1009.81
2018-09-23T08:36:20.126Z,1009.83
2018-09-23T08:38:12.914Z,1009.88
2018-09-23T08:39:12.851Z,1009.85
2018-09-23T08:41:05.638Z,1009.82
2018-09-23T08:42:05.564Z,1009.78
2018-09-23T08:43:58.362Z,1009.74
2018-09-23T08:44:58.278Z,1009.76
2018-09-23T08:46:51.064Z,1009.75
2018-09-23T08:47:51.060Z,1009.69
2018-09-23T08:49:43.821Z,1009.65
2018-09-23T08:50:43.731Z,1009.68
2018-09-23T08:52:36.527Z,1009.70
2018-09-23T08:53:36.439Z,1009.71
2018-09-23T08:55:29.239Z,1009.64
2018-09-23T08:56:29.166Z,1009.61
2018-09-23T08:58:21.967Z,1009.57
2018-09-23T08:59:21.891Z,1009.57
2018-09-23T09:01:14.677Z,1009.64
2018-09-23T09:02:14.613Z,1009.65
2018-09-23T09:04:07.418Z,1009.69
2018-09-23T09:05:07.344Z,1009.71
2018-09-23T09:07:00.133Z,1009.64
2018-09-23T09:08:00.067Z,1009.56
2018-09-23T09:09:52.836Z,1009.56
2018-09-23T09:10:52.795Z,1009.55
2018-09-23T09:12:45.697Z,1009.52
2018-09-23T09:13:45.573Z,1009.46
2018-09-23T09:15:38.440Z,1009.38
2018-09-23T09:16:38.377Z,1009.38
2018-09-23T09:18:31.189Z,1009.38
2018-09-23T09:19:31.097Z,1009.38
2018-09-23T09:21:23.938Z,1009.32
2018-09-23T09:22:23.863Z,1009.34
2018-09-23T09:24:16.661Z,1009.39
2018-09-23T09:25:16.585Z,1009.40
2018-09-23T09:27:09.474Z,1009.33
2018-09-23T09:28:09.322Z,1009.34
2018-09-23T09:30:02.183Z,1009.33
2018-09-23T09:31:02.177Z,1009.29
2018-09-23T09:32:54.920Z,1009.22
2018-09-23T09:33:54.841Z,1009.20
2018-09-23T09:35:47.622Z,1009.25
2018-09-23T09:36:47.543Z,1009.31
2018-09-23T09:38:40.345Z,1009.26
2018-09-23T09:39:40.261Z,1009.25
2018-09-23T09:41:33.126Z,1009.22
2018-09-23T09:42:33.018Z,1009.24
2018-09-23T09:44:25.827Z,1009.26
2018-09-23T09:45:25.754Z,1009.25
2018-09-23T09:47:18.523Z,1009.31
2018-09-23T09:48:18.460Z,1009.31
2018-09-23T09:50:11.254Z,1009.31
2018-09-23T09:51:11.189Z,1009.30
2018-09-23T09:53:03.998Z,1009.31
2018-09-23T09:54:03.884Z,1009.31
2018-09-23T09:55:56.699Z,1009.36
2018-09-23T09:56:56.605Z,1009.30
2018-09-23T09:58:49.403Z,1009.30
2018-09-23T09:59:49.337Z,1009.29
2018-09-23T10:01:42.080Z,1009.32
2018-09-23T10:02:42.019Z,1009.26
2018-09-23T10:04:34.823Z,1009.21
2018-09-23T10:05:34.745Z,1009.23
2018-09-23T10:07:27.562Z,1009.11
2018-09-23T10:08:27.497Z,1008.99
2018-09-23T10:10:20.295Z,1008.90
2018-09-23T10:11:20.259Z,1008.90
2018-09-23T10:13:13.068Z,1008.81
2018-09-23T10:14:12.956Z,1008.75
2018-09-23T10:16:05.781Z,1008.78
2018-09-23T10:17:05.712Z,1008.80
2018-09-23T10:18:58.493Z,1008.68
2018-09-23T10:19:58.416Z,1008.65
2018-09-23T10:21:51.221Z,1008.62
2018-09-23T10:22:51.195Z,1008.65
2018-09-23T10:24:43.933Z,1008.61
2018-09-23T10:25:44.926Z,1008.62
2018-09-23T10:27:36.851Z,1008.59
2018-09-23T10:28:36.538Z,1008.62
2018-09-23T10:30:29.363Z,1008.54
2018-09-23T10:31:29.355Z,1008.56
2018-09-23T10:33:22.057Z,1008.51
2018-09-23T10:34:21.992Z,1008.50
2018-09-23T10:36:14.838Z,1008.50
2018-09-23T10:37:14.727Z,1008.53
2018-09-23T10:39:07.535Z,1008.53
2018-09-23T10:40:07.456Z,1008.49
2018-09-23T10:42:00.241Z,1008.50
2018-09-23T10:43:00.167Z,1008.45
2018-09-23T10:44:53.003Z,1008.31
2018-09-23T10:45:52.973Z,1008.20
2018-09-23T10:47:45.699Z,1008.01
2018-09-23T10:48:45.622Z,1007.90
2018-09-23T10:50:38.444Z,1007.82
2018-09-23T10:51:38.370Z,1007.83
2018-09-23T10:53:31.129Z,1007.87
2018-09-23T10:54:31.058Z,1007.91
2018-09-23T10:56:23.885Z,1007.74
2018-09-23T10:57:23.807Z,1007.76
2018-09-23T10:59:16.704Z,1007.90
2018-09-23T11:00:16.617Z,1008.00
2018-09-23T11:02:09.395Z,1008.10
2018-09-23T11:03:09.324Z,1008.06
2018-09-23T11:05:02.121Z,1008.04
2018-09-23T11:06:02.051Z,1008.05
2018-09-23T11:07:54.813Z,1007.92
2018-09-23T11:08:54.755Z,1007.87
2018-09-23T11:10:47.612Z,1007.83
2018-09-23T11:11:47.541Z,1007.84
2018-09-23T11:13:40.318Z,1007.80
2018-09-23T11:14:40.267Z,1007.78
2018-09-23T11:16:33.078Z,1007.69
2018-09-23T11:17:32.957Z,1007.68
2018-09-23T11:19:25.755Z,1007.74
2018-09-23T11:20:25.678Z,1007.71
2018-09-23T11:22:18.466Z,1007.58
2018-09-23T11:23:18.464Z,1007.54
2018-09-23T11:25:11.204Z,1007.39
2018-09-23T11:26:11.130Z,1007.37
2018-09-23T11:28:03.919Z,1007.38
2018-09-23T11:29:03.853Z,1007.42
2018-09-23T11:30:56.719Z,1007.37
2018-09-23T11:31:56.632Z,1007.30
2018-09-23T11:33:49.417Z,1007.25
2018-09-23T11:34:49.359Z,1007.22
2018-09-23T11:36:42.143Z,1007.27
2018-09-23T11:37:42.079Z,1007.26
2018-09-23T11:39:34.849Z,1007.19
2018-09-23T11:40:34.781Z,1007.19
2018-09-23T11:42:27.623Z,1007.16
2018-09-23T11:43:27.567Z,1007.16
2018-09-23T11:45:20.340Z,1007.11
2018-09-23T11:46:20.277Z,1007.12
2018-09-23T11:48:13.076Z,1007.08
2018-09-23T11:49:12.987Z,1007.07
2018-09-23T11:51:05.789Z,1007.04
2018-09-23T11:52:05.710Z,1007.00
2018-09-23T11:53:58.511Z,1007.04
2018-09-23T11:54:58.472Z,1007.03
2018-09-23T11:56:51.218Z,1006.99
2018-09-23T11:57:51.133Z,1006.94
2018-09-23T11:59:43.934Z,1006.88
2018-09-23T12:00:43.864Z,1006.79
2018-09-23T12:02:36.653Z,1006.74
2018-09-23T12:03:36.564Z,1006.72
2018-09-23T12:05:29.450Z,1006.68
2018-09-23T12:06:29.382Z,1006.66
2018-09-23T12:08:22.163Z,1006.70
2018-09-23T12:09:22.106Z,1006.66
2018-09-23T12:11:14.908Z,1006.67
2018-09-23T12:12:14.838Z,1006.68
2018-09-23T12:14:07.654Z,1006.64
2018-09-23T12:15:07.622Z,1006.66
2018-09-23T12:17:00.443Z,1006.58
2018-09-23T12:18:00.334Z,1006.55
2018-09-23T12:19:53.133Z,1006.39
2018-09-23T12:20:53.100Z,1006.28
2018-09-23T12:22:45.953Z,1006.13
2018-09-23T12:23:45.873Z,1006.16
2018-09-23T12:25:38.822Z,1006.14
2018-09-23T12:26:38.661Z,1006.15
2018-09-23T12:28:31.437Z,1006.13
2018-09-23T12:29:31.427Z,1006.15
2018-09-23T12:31:24.661Z,1006.07
2018-09-23T12:32:24.596Z,1006.08
2018-09-23T12:34:17.370Z,1006.05
2018-09-23T12:35:17.291Z,1006.08
2018-09-23T12:37:10.108Z,1006.13
2018-09-23T12:38:10.027Z,1006.19
2018-09-23T12:40:02.847Z,1006.31
2018-09-23T12:41:02.732Z,1006.28
2018-09-23T12:42:55.599Z,1006.31
2018-09-23T12:43:55.521Z,1006.30
2018-09-23T12:45:48.336Z,1006.36
2018-09-23T12:46:48.267Z,1006.37
2018-09-23T12:48:41.094Z,1006.36
2018-09-23T12:49:41.018Z,1006.32
2018-09-23T12:51:33.807Z,1006.27
2018-09-23T12:52:33.743Z,1006.23
2018-09-23T12:54:26.510Z,1006.17
2018-09-23T12:55:26.455Z,1006.11
2018-09-23T12:57:19.216Z,1006.07
2018-09-23T12:58:19.180Z,1006.03
2018-09-23T13:00:12.099Z,1005.92
2018-09-23T13:01:11.959Z,1005.93
2018-09-23T13:03:04.763Z,1005.99
2018-09-23T13:04:04.679Z,1005.94
2018-09-23T13:05:57.671Z,1005.87
2018-09-23T13:06:57.397Z,1005.86
2018-09-23T13:08:50.196Z,1005.77
2018-09-23T13:09:50.122Z,1005.72
2018-09-23T13:11:42.972Z,1005.69
2018-09-23T13:12:42.893Z,1005.71
2018-09-23T13:14:35.933Z,1005.72
2018-09-23T13:15:35.701Z,1005.75
2018-09-23T13:17:28.541Z,1005.67
2018-09-23T13:18:28.399Z,1005.73
2018-09-23T13:20:21.247Z,1005.77
2018-09-23T13:21:21.190Z,1005.74
2018-09-23T13:23:14.012Z,1005.71
2018-09-23T13:24:13.895Z,1005.65
2018-09-23T13:26:06.725Z,1005.65
2018-09-23T13:27:06.637Z,1005.64
2018-09-23T13:28:59.517Z,1005.60
2018-09-23T13:29:59.384Z,1005.58
2018-09-23T13:31:52.217Z,1005.60
2018-09-23T13:32:52.109Z,1005.54
2018-09-23T13:34:45.283Z,1005.49
2018-09-23T13:35:44.825Z,1005.48
2018-09-23T13:37:37.643Z,1005.39
2018-09-23T13:38:37.555Z,1005.38
2018-09-23T13:40:30.393Z,1005.25
2018-09-23T13:41:30.327Z,1005.30
2018-09-23T13:43:23.128Z,1005.20
2018-09-23T13:44:23.069Z,1005.14
2018-09-23T13:46:15.870Z,1005.00
2018-09-23T13:47:15.769Z,1004.92
2018-09-23T13:49:08.609Z,1004.76
2018-09-23T13:50:08.528Z,1004.67
2018-09-23T13:52:01.397Z,1004.60
2018-09-23T13:53:01.280Z,1004.65
2018-09-23T13:54:54.642Z,1004.74
2018-09-23T13:55:53.998Z,1004.69
2018-09-23T13:57:46.761Z,1004.60
2018-09-23T13:58:46.675Z,1004.62
2018-09-23T14:00:39.477Z,1004.68
2018-09-23T14:01:39.377Z,1004.71
2018-09-23T14:03:32.212Z,1004.59
2018-09-23T14:04:32.118Z,1004.40
2018-09-23T14:06:25.917Z,1003.95
2018-09-23T14:07:24.890Z,1003.73
2018-09-23T14:09:17.658Z,1003.57
2018-09-23T14:12:10.443Z,1003.67
2018-09-23T14:13:10.317Z,1003.67
2018-09-23T14:15:03.124Z,1003.52
2018-09-23T14:16:03.053Z,1003.40
2018-09-23T14:17:55.901Z,1003.14
2018-09-23T14:18:55.797Z,1003.04
2018-09-23T14:20:48.618Z,1002.99
2018-09-23T14:21:48.545Z,1002.95
2018-09-23T14:23:41.321Z,1002.93
2018-09-23T14:24:41.230Z,1002.94
2018-09-23T14:26:34.085Z,1002.85
2018-09-23T14:27:33.949Z,1002.76
2018-09-23T14:29:26.731Z,1002.46
2018-09-23T14:30:26.672Z,1002.44
2018-09-23T14:32:19.696Z,1002.57
2018-09-23T14:33:19.344Z,1002.66
2018-09-23T14:35:12.286Z,1002.96
2018-09-23T14:36:12.221Z,1003.08
2018-09-23T14:38:04.917Z,1003.25
2018-09-23T14:39:04.840Z,1003.35
2018-09-23T14:40:57.639Z,1003.61
2018-09-23T14:41:57.564Z,1003.62
2018-09-23T14:43:50.326Z,1003.57
2018-09-23T14:44:50.250Z,1003.60
2018-09-23T14:46:43.189Z,1003.48
2018-09-23T14:47:43.097Z,1003.46
2018-09-23T14:49:35.825Z,1003.40
2018-09-23T14:50:35.734Z,1003.45
2018-09-23T14:52:28.517Z,1003.49
2018-09-23T14:53:28.446Z,1003.48
2018-09-23T14:55:21.233Z,1003.39
2018-09-23T14:56:21.157Z,1003.29
2018-09-23T14:58:14.121Z,1003.08
2018-09-23T14:59:13.976Z,1003.01
2018-09-23T15:01:06.681Z,1003.09
2018-09-23T15:02:06.599Z,1003.24
2018-09-23T15:03:59.428Z,1003.37
2018-09-23T15:04:59.351Z,1003.32
2018-09-23T15:06:52.201Z,1003.29
2018-09-23T15:07:52.124Z,1003.29
2018-09-23T15:09:45.173Z,1003.23
2018-09-23T15:10:44.980Z,1003.19
2018-09-23T15:12:37.622Z,1003.13
2018-09-23T15:13:37.548Z,1003.11
2018-09-23T15:15:30.407Z,1003.07
2018-09-23T15:16:30.356Z,1003.03
2018-09-23T15:18:23.302Z,1003.21
2018-09-23T15:19:23.217Z,1003.34
2018-09-23T15:21:15.872Z,1003.45
2018-09-23T15:22:15.848Z,1003.43
2018-09-23T15:24:08.637Z,1003.31
2018-09-23T15:25:08.555Z,1003.24
2018-09-23T15:27:01.346Z,1003.08
2018-09-23T15:28:01.277Z,1002.94
2018-09-23T15:29:54.411Z,1002.79
2018-09-23T15:30:54.060Z,1002.75
2018-09-23T15:32:46.826Z,1002.72
2018-09-23T15:33:46.711Z,1002.71
2018-09-23T15:35:39.543Z,1002.67
2018-09-23T15:36:39.440Z,1002.71
2018-09-23T15:38:32.211Z,1002.73
2018-09-23T15:39:32.130Z,1002.65
2018-09-23T15:41:24.894Z,1002.60
2018-09-23T15:42:24.860Z,1002.69
2018-09-23T15:44:17.648Z,1002.85
2018-09-23T15:45:17.553Z,1002.94
2018-09-23T15:47:10.320Z,1002.94
2018-09-23T15:48:10.250Z,1002.86
2018-09-23T15:50:03.086Z,1002.74
2018-09-23T15:51:03.011Z,1002.63
2018-09-23T15:52:55.813Z,1002.53
2018-09-23T15:53:55.714Z,1002.43
2018-09-23T15:55:48.490Z,1002.46
2018-09-23T15:56:48.502Z,1002.47
2018-09-23T15:58:41.205Z,1002.55
2018-09-23T15:59:41.134Z,1002.51
2018-09-23T16:01:33.908Z,1002.37
2018-09-23T16:02:33.861Z,1002.31
2018-09-23T16:04:26.921Z,1002.25
2018-09-23T16:05:26.601Z,1002.23
2018-09-23T16:07:19.371Z,1002.22
2018-09-23T16:08:19.304Z,1002.23
2018-09-23T16:10:12.083Z,1002.41
2018-09-23T16:11:12.009Z,1002.37
2018-09-23T16:13:04.804Z,1002.31
2018-09-23T16:14:04.712Z,1002.31
2018-09-23T16:15:57.504Z,1002.41
2018-09-23T16:16:57.420Z,1002.49
2018-09-23T16:18:50.375Z,1002.37
2018-09-23T16:19:50.159Z,1002.39
2018-09-23T16:21:42.949Z,1002.27
2018-09-23T16:22:42.895Z,1002.15
2018-09-23T16:24:35.719Z,1002.20
2018-09-23T16:25:35.729Z,1002.24
2018-09-23T16:27:28.427Z,1002.21
2018-09-23T16:28:28.366Z,1002.15
2018-09-23T16:30:21.226Z,1002.14
2018-09-23T16:31:21.144Z,1002.21
2018-09-23T16:33:13.935Z,1002.21
2018-09-23T16:34:13.858Z,1002.09
2018-09-23T16:36:06.622Z,1002.00
2018-09-23T16:37:06.549Z,1002.02
2018-09-23T16:38:59.360Z,1002.04
2018-09-23T16:39:59.283Z,1002.04
2018-09-23T16:41:52.035Z,1001.96
2018-09-23T16:42:51.969Z,1001.86
2018-09-23T16:44:44.751Z,1001.50
2018-09-23T16:45:44.662Z,1001.24
2018-09-23T16:47:37.481Z,1000.90
2018-09-23T16:48:37.370Z,1000.90
2018-09-23T16:50:30.203Z,1000.99
2018-09-23T16:51:30.134Z,1000.95
2018-09-23T16:53:22.929Z,1000.94
2018-09-23T16:54:22.892Z,1000.98
2018-09-23T16:56:15.607Z,1001.03
2018-09-23T16:57:15.538Z,1001.06
2018-09-23T16:59:08.315Z,1000.99
2018-09-23T17:00:08.243Z,1000.96
2018-09-23T17:02:00.995Z,1001.02
2018-09-23T17:03:00.929Z,1001.08
2018-09-23T17:04:53.788Z,1001.22
2018-09-23T17:05:53.697Z,1001.34
2018-09-23T17:07:46.516Z,1001.58
2018-09-23T17:08:46.409Z,1001.57
2018-09-23T17:10:39.201Z,1001.67
2018-09-23T17:11:39.111Z,1001.70
2018-09-23T17:13:32.407Z,1001.74
2018-09-23T17:14:32.331Z,1001.82
2018-09-23T17:16:25.238Z,1001.76
2018-09-23T17:17:25.137Z,1001.72
2018-09-23T17:19:17.916Z,1001.64
2018-09-23T17:20:17.836Z,1001.56
2018-09-23T17:22:10.613Z,1001.77
2018-09-23T17:23:10.541Z,1001.87
2018-09-23T17:25:03.358Z,1001.79